KMLF

Milford Municipal / Ben and Judy Briscoe Field Airport

Milford, Utah, USA
METAR KMLF 150252Z AUTO 35005KT 10SM FEW100 BKN120 28/07 A3006 RMK AO2 WSHFT 0203 RAB0157E13 SLP106 P0000 60000 T02780067 53015
Observed Flight Rules
Aug-15 @ 02:52 UTC (44 minutes ago) Visual Flight Rules
Wind Visibility Clouds
350° at 5 knots 10 miles
  • Few at 10,000' AGL
  • Broken at 12,000' AGL
Temperatures Readings Precipitation
Current 28°C / 82°F
Dewpoint 7°C / 45°F
Humidity 26%
Altimeter 30.06" Hg
Pressure 1010.6 hPa
Elevation 1534
Current Rain 0.005
METAR KMLF 150252Z AUTO 35005KT 10SM FEW100 BKN120 28/07 A3006 RMK AO2 WSHFT 0203 RAB0157E13 SLP106 P0000 60000 T02780067 53015
Observed Flight Rules
Aug-15 @ 02:52 UTC
(44 minutes ago)
VFR
Wind Visibility
350° at 5 knots 10 miles
Clouds
  • Few at 10,000' AGL
  • Broken at 12,000' AGL
Temperature Dewpoint
28°C / 82°F 7°C / 45°F
Humidity Altimeter Pressure
26% 30.06" Hg 1010.6 hPa
Current Rain
0.005